Time;durP1;ratioP1;P1;durP2;ratioP2;P2;SDS_P1;SDS_P2;PMS_P1;PMS_P2;Temp;Humidity;BMP_temperature;BMP_pressure;BME280_temperature;BME280_humidity;BME280_pressure;Samples;Min_cycle;Max_cycle;Signal;HPM_P1;HPM_P2
2021/10/01 00:00:50;;;;;;;8.60;3.30;;;35.40;16.00;;;;;;5090425;28;20068;-66
2021/10/01 00:03:17;;;;;;;12.57;3.42;;;35.60;16.00;;;;;;5074607;28;20802;-66
2021/10/01 00:05:43;;;;;;;12.18;3.17;;;35.70;15.80;;;;;;5090046;28;20102;-66
2021/10/01 00:08:10;;;;;;;6.80;3.05;;;35.80;15.70;;;;;;5091984;28;20092;-66
2021/10/01 00:10:37;;;;;;;12.30;3.25;;;35.90;15.80;;;;;;5092406;28;20083;-66
2021/10/01 00:13:04;;;;;;;12.00;3.80;;;35.90;15.70;;;;;;5091662;28;20067;-66
2021/10/01 00:15:31;;;;;;;13.20;3.83;;;35.70;15.50;;;;;;5090577;28;20102;-66
2021/10/01 00:17:58;;;;;;;9.63;3.35;;;35.80;15.90;;;;;;5075194;28;20072;-65
2021/10/01 00:20:25;;;;;;;12.77;3.08;;;35.90;16.10;;;;;;5075016;28;20068;-66
2021/10/01 00:22:51;;;;;;;13.30;3.47;;;35.80;15.90;;;;;;5090247;28;20170;-66
2021/10/01 00:25:19;;;;;;;10.15;3.28;;;35.60;15.30;;;;;;5090409;28;20722;-64
2021/10/01 00:27:45;;;;;;;9.23;3.55;;;35.30;15.40;;;;;;5089685;28;20163;-65
2021/10/01 00:30:12;;;;;;;9.40;3.53;;;35.30;15.70;;;;;;5090573;28;20114;-65
2021/10/01 00:32:38;;;;;;;10.48;3.15;;;35.40;16.00;;;;;;5090137;28;20178;-65
2021/10/01 00:35:05;;;;;;;10.73;3.67;;;35.30;15.50;;;;;;5091428;28;20132;-68
2021/10/01 00:37:31;;;;;;;14.13;4.05;;;35.20;15.70;;;;;;5091981;28;20525;-67
2021/10/01 00:39:58;;;;;;;9.35;3.80;;;35.20;15.90;;;;;;5092638;28;20513;-65
2021/10/01 00:42:24;;;;;;;16.42;3.90;;;35.00;15.40;;;;;;5090668;28;20120;-67
2021/10/01 00:44:50;;;;;;;11.82;3.58;;;34.90;15.60;;;;;;5091705;28;20082;-67
2021/10/01 00:47:17;;;;;;;39.13;6.38;;;34.80;15.30;;;;;;5090567;28;20104;-66
2021/10/01 00:49:43;;;;;;;31.92;5.43;;;34.70;15.40;;;;;;5095129;28;20071;-67
2021/10/01 00:52:10;;;;;;;9.13;3.53;;;34.60;15.80;;;;;;5091014;28;20594;-67
2021/10/01 00:54:36;;;;;;;7.75;3.50;;;34.60;15.40;;;;;;5073441;28;20106;-66
2021/10/01 00:57:03;;;;;;;10.85;3.60;;;34.60;15.40;;;;;;5090665;28;20068;-66
2021/10/01 00:59:29;;;;;;;9.30;3.95;;;34.50;15.20;;;;;;5088720;28;20071;-68
2021/10/01 01:01:56;;;;;;;12.88;3.90;;;34.50;15.80;;;;;;5090836;28;20080;-67
2021/10/01 01:04:23;;;;;;;9.75;4.15;;;34.20;15.30;;;;;;5090749;28;20119;-65
2021/10/01 01:07:12;;;;;;;12.75;4.03;;;34.10;15.40;;;;;;5089911;28;20124;-66
2021/10/01 01:10:01;;;;;;;10.30;3.80;;;34.00;15.60;;;;;;5092255;28;20071;-65
2021/10/01 01:12:35;;;;;;;9.93;4.55;;;33.80;15.20;;;;;;5073249;28;20170;-66
2021/10/01 01:15:12;;;;;;;11.40;4.93;;;33.90;15.40;;;;;;5089685;28;20571;-67
2021/10/01 01:17:43;;;;;;;14.63;3.90;;;33.90;15.50;;;;;;5089916;28;20114;-61
2021/10/01 01:20:24;;;;;;;11.38;4.00;;;33.90;16.60;;;;;;5091214;28;20460;-65
2021/10/01 01:23:22;;;;;;;14.63;4.40;;;33.70;15.70;;;;;;5090142;28;20079;-66
2021/10/01 01:26:15;;;;;;;9.80;3.90;;;33.70;16.40;;;;;;5090103;28;20109;-64
2021/10/01 01:29:09;;;;;;;11.18;4.43;;;33.70;16.50;;;;;;5084539;28;20096;-67
2021/10/01 01:31:54;;;;;;;12.00;4.55;;;33.50;16.80;;;;;;5089748;28;20074;-65
2021/10/01 01:34:37;;;;;;;14.65;4.90;;;33.40;33.10;;;;;;5089074;28;20580;-67
2021/10/01 01:37:30;;;;;;;16.45;4.72;;;;;;;;;;5088427;28;20082;-65
2021/10/01 01:39:57;;;;;;;14.75;5.03;;;;;;;;;;5086926;28;20070;-66
2021/10/01 01:42:25;;;;;;;24.90;6.03;;;;;;;;;;5088077;28;20020;-64
2021/10/01 01:44:52;;;;;;;12.82;5.10;;;;;;;;;;5088290;28;20390;-64
2021/10/01 01:47:18;;;;;;;11.80;5.10;;;;;;;;;;5089375;28;20023;-66
2021/10/01 01:49:46;;;;;;;16.80;5.60;;;32.80;18.40;;;;;;5088925;28;20051;-65
2021/10/01 01:52:14;;;;;;;18.35;6.15;;;32.80;17.50;;;;;;5071701;28;20083;-65
2021/10/01 01:54:45;;;;;;;16.33;5.97;;;32.60;17.80;;;;;;5088355;28;20072;-67
2021/10/01 01:57:12;;;;;;;20.38;6.32;;;32.30;18.20;;;;;;5088631;28;20075;-66
2021/10/01 01:59:41;;;;;;;18.23;6.10;;;32.10;18.40;;;;;;5086735;28;20069;-65
2021/10/01 02:02:08;;;;;;;20.63;5.65;;;31.80;19.40;;;;;;5086108;28;20032;-65
2021/10/01 02:04:35;;;;;;;18.88;6.10;;;;;;;;;;5089490;28;20081;-66
2021/10/01 02:07:03;;;;;;;21.88;6.18;;;31.60;18.90;;;;;;5087515;28;20020;-65
2021/10/01 02:09:32;;;;;;;29.02;7.15;;;31.60;19.30;;;;;;5090073;28;20096;-64
2021/10/01 02:12:00;;;;;;;21.77;6.63;;;31.50;19.60;;;;;;5088094;28;20080;-66
2021/10/01 02:14:28;;;;;;;32.70;6.50;;;31.30;19.40;;;;;;5088626;28;20149;-64
2021/10/01 02:16:56;;;;;;;27.30;5.85;;;31.20;19.20;;;;;;5089681;28;20104;-65
2021/10/01 02:19:25;;;;;;;40.28;6.50;;;31.10;19.40;;;;;;5090535;28;20077;-65
2021/10/01 02:21:53;;;;;;;64.03;8.52;;;31.00;20.30;;;;;;5090171;28;20488;-65
2021/10/01 02:24:21;;;;;;;64.38;8.40;;;30.90;20.20;;;;;;5088397;28;20077;-66
2021/10/01 02:26:59;;;;;;;47.17;7.82;;;30.70;20.80;;;;;;5088180;28;20095;-64
2021/10/01 02:29:45;;;;;;;39.63;7.13;;;30.70;21.20;;;;;;5092269;28;20111;-66
2021/10/01 02:32:32;;;;;;;37.05;8.45;;;30.50;21.70;;;;;;5089689;28;20086;-68
2021/10/01 02:35:00;;;;;;;28.35;6.50;;;30.50;21.80;;;;;;5088110;28;20104;-67
2021/10/01 02:37:26;;;;;;;25.25;6.18;;;;;;;;;;5090105;28;20087;-68
2021/10/01 02:39:54;;;;;;;34.22;6.03;;;;;;;;;;5090218;28;20036;-65
2021/10/01 02:42:22;;;;;;;24.60;5.93;;;30.20;20.30;;;;;;5088362;28;20024;-69
2021/10/01 02:44:49;;;;;;;25.52;5.90;;;;;;;;;;5088263;28;20421;-66
2021/10/01 02:47:16;;;;;;;26.92;5.30;;;30.10;20.40;;;;;;5089327;28;20099;-67
2021/10/01 02:49:44;;;;;;;21.52;5.65;;;30.10;20.80;;;;;;5089694;28;20067;-67
2021/10/01 02:52:37;;;;;;;18.30;5.78;;;30.20;27.40;;;;;;5072171;28;20068;-67
2021/10/01 02:55:13;;;;;;;26.33;7.22;;;;;;;;;;5088073;28;20085;-66
2021/10/01 02:58:04;;;;;;;20.98;6.40;;;29.80;28.40;;;;;;5071162;28;20028;-67
2021/10/01 03:00:31;;;;;;;24.80;6.63;;;29.80;20.80;;;;;;5088726;28;20165;-68
2021/10/01 03:02:58;;;;;;;29.83;6.22;;;29.70;21.40;;;;;;5095718;28;20068;-67
2021/10/01 03:05:27;;;;;;;28.73;7.25;;;29.60;21.20;;;;;;5094746;28;20217;-68
2021/10/01 03:07:54;;;;;;;25.45;7.50;;;29.50;21.10;;;;;;5070866;28;20072;-67
2021/10/01 03:10:23;;;;;;;29.90;6.68;;;29.40;21.20;;;;;;5072507;28;20088;-67
2021/10/01 03:12:50;;;;;;;27.13;7.32;;;29.30;21.60;;;;;;5088579;28;20100;-67
2021/10/01 03:15:17;;;;;;;32.55;7.50;;;29.20;21.30;;;;;;5087656;28;20175;-68
2021/10/01 03:17:45;;;;;;;29.27;8.10;;;29.20;22.20;;;;;;5075333;28;20115;-68
2021/10/01 03:20:12;;;;;;;28.60;8.65;;;;;;;;;;5054146;28;20081;-67
2021/10/01 03:22:40;;;;;;;30.67;8.70;;;29.10;22.70;;;;;;5087516;28;20055;-67
2021/10/01 03:25:07;;;;;;;41.78;9.30;;;29.20;41.70;;;;;;5089729;28;20561;-68
2021/10/01 03:27:34;;;;;;;40.45;11.13;;;29.80;42.80;;;;;;5086717;28;20035;-67
2021/10/01 03:30:04;;;;;;;38.35;11.35;;;29.00;53.90;;;;;;5087587;28;20024;-68
2021/10/01 03:32:31;;;;;;;33.50;9.27;;;;;;;;;;5087636;28;20032;-66
2021/10/01 03:35:01;;;;;;;40.58;10.73;;;;;;;;;;5091495;28;20490;-67
2021/10/01 03:37:28;;;;;;;32.05;10.90;;;28.50;22.90;;;;;;5092779;28;20036;-66
2021/10/01 03:40:00;;;;;;;35.55;10.10;;;28.50;22.80;;;;;;5092305;28;20126;-67
2021/10/01 03:42:53;;;;;;;35.35;9.57;;;28.30;23.30;;;;;;5075412;28;20108;-68
2021/10/01 03:45:19;;;;;;;37.33;9.85;;;28.10;23.30;;;;;;5090538;28;20112;-67
2021/10/01 03:47:46;;;;;;;38.28;10.38;;;28.10;23.50;;;;;;5092779;28;20073;-68
2021/10/01 03:50:20;;;;;;;58.88;15.20;;;;;;;;;;5092002;28;20098;-66
2021/10/01 03:52:46;;;;;;;59.72;15.40;;;;;;;;;;5089686;28;20860;-67
2021/10/01 03:55:19;;;;;;;56.00;13.75;;;27.90;23.80;;;;;;5090795;28;20073;-67
2021/10/01 03:57:50;;;;;;;64.78;13.05;;;27.90;24.80;;;;;;5102963;28;20088;-66
2021/10/01 04:00:18;;;;;;;63.78;13.73;;;27.60;57.00;;;;;;5059121;28;20060;-66
2021/10/01 04:02:44;;;;;;;69.63;14.70;;;;;;;;;;5091801;28;20017;-66
2021/10/01 04:05:12;;;;;;;59.75;13.90;;;27.70;24.50;;;;;;5091294;28;20032;-68
2021/10/01 04:07:39;;;;;;;50.53;13.27;;;27.60;57.10;;;;;;5073954;28;20170;-67
2021/10/01 04:10:07;;;;;;;51.17;12.82;;;27.70;24.40;;;;;;5092910;28;20024;-68
2021/10/01 04:12:34;;;;;;;62.13;12.48;;;27.60;24.80;;;;;;5090388;28;20546;-70
2021/10/01 04:15:01;;;;;;;63.67;12.13;;;27.70;24.80;;;;;;5090333;28;20169;-69
2021/10/01 04:17:28;;;;;;;43.28;11.02;;;;;;;;;;5091716;28;20485;-68
2021/10/01 04:19:54;;;;;;;44.28;10.80;;;;;;;;;;5091236;28;20123;-68
2021/10/01 04:22:23;;;;;;;48.22;10.70;;;27.40;37.00;;;;;;5090056;28;20546;-67
2021/10/01 04:24:50;;;;;;;47.80;11.23;;;;;;;;;;5091806;28;20078;-67
2021/10/01 04:27:16;;;;;;;36.55;9.65;;;28.00;39.00;;;;;;5090615;28;20506;-68
2021/10/01 04:29:43;;;;;;;42.47;10.85;;;28.20;33.40;;;;;;5073341;28;20386;-67
2021/10/01 04:32:10;;;;;;;41.75;10.10;;;27.50;25.20;;;;;;5098033;28;20146;-64
2021/10/01 04:37:15;;;;;;;38.40;8.77;;;27.40;24.80;;;;;;5091661;28;20088;-65
2021/10/01 04:39:41;;;;;;;28.10;8.82;;;27.40;23.20;;;;;;5091219;28;20104;-65
2021/10/01 04:42:07;;;;;;;41.28;9.43;;;27.40;23.50;;;;;;5091570;28;20077;-66
2021/10/01 04:44:34;;;;;;;38.78;8.32;;;27.40;23.00;;;;;;5089321;28;20125;-63
2021/10/01 04:47:00;;;;;;;34.53;7.75;;;27.30;22.70;;;;;;5089586;28;20183;-62
2021/10/01 04:49:27;;;;;;;39.40;8.93;;;27.20;23.10;;;;;;5091380;28;20108;-63
2021/10/01 04:51:54;;;;;;;32.50;9.23;;;27.10;22.50;;;;;;5074394;28;20079;-62
2021/10/01 04:54:20;;;;;;;37.00;12.65;;;27.00;22.40;;;;;;5091466;28;20089;-63
2021/10/01 04:56:47;;;;;;;36.17;9.88;;;27.00;22.80;;;;;;5095403;28;20197;-63
2021/10/01 04:59:14;;;;;;;26.17;9.93;;;27.00;22.80;;;;;;5073314;28;20523;-63
2021/10/01 05:01:40;;;;;;;36.35;9.98;;;27.00;23.10;;;;;;5091313;28;20163;-61
2021/10/01 05:04:06;;;;;;;35.40;10.57;;;26.90;23.50;;;;;;5090768;28;20479;-62
2021/10/01 05:06:35;;;;;;;39.05;12.52;;;26.80;23.30;;;;;;5090580;28;20092;-63
2021/10/01 05:09:01;;;;;;;31.30;10.48;;;26.80;24.00;;;;;;5091567;28;20081;-64
2021/10/01 05:11:28;;;;;;;36.00;11.55;;;26.70;23.50;;;;;;5090971;28;20088;-64
2021/10/01 05:13:57;;;;;;;33.20;10.45;;;26.60;24.20;;;;;;5057544;28;20088;-64
2021/10/01 05:16:23;;;;;;;38.97;10.23;;;26.50;24.30;;;;;;5090562;28;20141;-64
2021/10/01 05:18:50;;;;;;;39.78;11.13;;;26.50;24.80;;;;;;5089726;28;20172;-63
2021/10/01 05:21:16;;;;;;;33.80;10.02;;;26.50;24.90;;;;;;5090086;28;20179;-63
2021/10/01 05:23:43;;;;;;;37.53;9.50;;;26.40;25.20;;;;;;5090661;28;20126;-65
2021/10/01 05:26:09;;;;;;;37.13;9.82;;;26.30;25.60;;;;;;5073505;28;20092;-63
2021/10/01 05:28:36;;;;;;;49.22;10.00;;;26.20;25.40;;;;;;5089941;28;20076;-62
2021/10/01 05:31:02;;;;;;;35.42;9.93;;;26.10;25.60;;;;;;5090761;28;20124;-63
2021/10/01 05:33:29;;;;;;;39.40;9.90;;;26.10;25.60;;;;;;5089642;28;20576;-63
2021/10/01 05:35:55;;;;;;;37.08;10.18;;;26.00;32.70;;;;;;5091303;28;20079;-65
2021/10/01 05:38:24;;;;;;;37.30;9.27;;;;;;;;;;5094579;28;20030;-63
2021/10/01 05:40:50;;;;;;;35.65;8.88;;;;;;;;;;5090747;28;20482;-62
2021/10/01 05:43:24;;;;;;;39.58;9.85;;;25.70;25.20;;;;;;5090273;28;20027;-63
2021/10/01 05:45:53;;;;;;;32.35;9.18;;;26.00;41.60;;;;;;5090307;28;20080;-63
2021/10/01 05:48:22;;;;;;;33.38;9.70;;;25.60;25.50;;;;;;5091924;28;20034;-63
2021/10/01 05:50:54;;;;;;;37.47;9.27;;;25.50;25.60;;;;;;5086435;28;20449;-63
2021/10/01 05:53:37;;;;;;;39.30;8.55;;;25.50;25.60;;;;;;5088954;28;20075;-62
2021/10/01 05:56:08;;;;;;;54.53;10.93;;;25.50;25.90;;;;;;5091593;28;20038;-62
2021/10/01 05:58:38;;;;;;;40.60;9.70;;;25.50;26.00;;;;;;5093921;28;20085;-63
2021/10/01 06:01:05;;;;;;;61.53;10.35;;;25.40;26.10;;;;;;5087812;28;20134;-60
2021/10/01 06:03:32;;;;;;;40.03;10.05;;;25.40;26.20;;;;;;5087256;28;20076;-62
2021/10/01 06:05:58;;;;;;;45.70;9.25;;;25.30;26.20;;;;;;5091643;28;20542;-63
2021/10/01 06:08:25;;;;;;;50.80;10.25;;;25.30;26.60;;;;;;5072600;28;20080;-62
2021/10/01 06:10:51;;;;;;;45.90;9.50;;;25.20;27.00;;;;;;5087659;28;20120;-63
2021/10/01 06:13:18;;;;;;;43.30;8.65;;;25.20;27.70;;;;;;5088260;28;20072;-62
2021/10/01 06:15:48;;;;;;;40.55;6.75;;;25.10;27.50;;;;;;5089264;28;20089;-63
2021/10/01 06:18:14;;;;;;;45.85;8.70;;;25.10;25.90;;;;;;5087889;28;20538;-63
2021/10/01 06:20:40;;;;;;;54.53;20.83;;;25.00;26.40;;;;;;5095857;28;20117;-66
2021/10/01 06:23:07;;;;;;;66.10;10.30;;;26.20;25.00;;;;;;5087483;28;21113;-63
2021/10/01 06:25:33;;;;;;;51.67;8.32;;;28.20;23.40;;;;;;5086889;28;20072;-63
2021/10/01 06:27:59;;;;;;;82.32;10.23;;;29.20;22.50;;;;;;5071065;28;20097;-65
2021/10/01 06:30:26;;;;;;;38.60;8.45;;;29.60;22.10;;;;;;5086700;28;20105;-63
2021/10/01 06:32:52;;;;;;;56.88;7.85;;;30.00;21.30;;;;;;5087643;28;20556;-64
2021/10/01 06:35:20;;;;;;;53.83;6.93;;;29.90;22.10;;;;;;5088012;28;20649;-63
2021/10/01 06:37:47;;;;;;;75.28;9.90;;;29.90;21.50;;;;;;5087178;28;20116;-65
2021/10/01 06:40:14;;;;;;;145.38;13.05;;;30.40;21.30;;;;;;5091726;28;20154;-63
2021/10/01 06:42:46;;;;;;;31.73;7.28;;;;;;;;;;5092187;28;20071;-65
2021/10/01 06:45:17;;;;;;;99.20;11.18;;;30.10;21.40;;;;;;5089999;28;20397;-62
2021/10/01 06:47:52;;;;;;;60.92;9.05;;;30.10;21.80;;;;;;5086364;28;20122;-66
2021/10/01 08:18:25;;;;;;;;;;;26.80;18.70;;;;;;5087901;28;20070;-64
2021/10/01 08:20:51;;;;;;;13.35;4.70;;;26.80;18.60;;;;;;5089221;28;19976;-63
2021/10/01 08:23:18;;;;;;;10.63;4.10;;;26.60;17.50;;;;;;5091742;28;20426;-64
2021/10/01 08:25:44;;;;;;;19.05;4.25;;;26.50;17.60;;;;;;5089287;28;20091;-63
2021/10/01 08:28:11;;;;;;;11.32;3.67;;;26.60;17.90;;;;;;5091054;28;20068;-61
2021/10/01 08:30:38;;;;;;;12.35;3.28;;;;;;;;;;5090662;28;20228;-63
2021/10/01 08:33:04;;;;;;;13.65;3.45;;;;;;;;;;5092678;28;20154;-65
2021/10/01 08:35:32;;;;;;;14.43;3.65;;;;;;;;;;5090938;28;20474;-62
2021/10/01 08:38:00;;;;;;;9.95;2.80;;;26.70;45.80;;;;;;5088924;28;20034;-63
2021/10/01 08:40:27;;;;;;;16.00;4.18;;;26.70;17.60;;;;;;5089167;28;20076;-63
2021/10/01 08:42:56;;;;;;;6.57;3.25;;;26.10;33.00;;;;;;5088436;28;20072;-64
2021/10/01 08:45:27;;;;;;;16.13;3.85;;;26.30;20.10;;;;;;5090149;28;20036;-63
2021/10/01 08:47:57;;;;;;;10.45;3.50;;;26.20;18.80;;;;;;5087458;28;20087;-63
2021/10/01 08:50:26;;;;;;;8.38;3.80;;;25.80;19.60;;;;;;5091333;28;20118;-63
2021/10/01 08:52:56;;;;;;;11.80;3.97;;;25.70;19.90;;;;;;5089468;28;20077;-64
2021/10/01 08:55:22;;;;;;;11.90;3.88;;;25.70;20.10;;;;;;5088751;28;20180;-62
2021/10/01 08:57:49;;;;;;;13.82;3.78;;;25.70;20.60;;;;;;5091251;28;20180;-61
2021/10/01 09:00:17;;;;;;;13.55;3.35;;;25.70;31.30;;;;;;5089787;28;20073;-64
2021/10/01 09:02:53;;;;;;;18.33;3.63;;;25.40;31.40;;;;;;5090561;28;20105;-64
2021/10/01 09:05:19;;;;;;;9.43;3.03;;;25.20;43.50;;;;;;5089485;28;20024;-62
2021/10/01 09:07:49;;;;;;;8.63;3.30;;;25.50;51.30;;;;;;5088551;28;20443;-63
2021/10/01 09:10:16;;;;;;;19.80;4.05;;;25.50;19.20;;;;;;5088863;28;20036;-61
2021/10/01 09:12:53;;;;;;;10.60;3.55;;;24.90;33.60;;;;;;5090158;28;20084;-62
2021/10/01 09:15:21;;;;;;;20.17;4.10;;;25.60;36.70;;;;;;5092989;28;20416;-61
2021/10/01 09:17:50;;;;;;;19.33;4.60;;;25.50;41.50;;;;;;5090184;28;20074;-62
2021/10/01 09:20:23;;;;;;;11.32;4.03;;;25.50;20.20;;;;;;5091190;28;20088;-62
2021/10/01 09:22:49;;;;;;;13.38;4.20;;;25.40;19.80;;;;;;5089325;28;20083;-62
2021/10/01 09:25:24;;;;;;;9.68;3.65;;;25.40;20.30;;;;;;5090747;28;20087;-63
2021/10/01 09:27:59;;;;;;;17.75;4.20;;;25.40;20.00;;;;;;5091245;28;20183;-63
2021/10/01 09:30:26;;;;;;;11.65;4.20;;;25.30;19.80;;;;;;5088867;28;20152;-64
2021/10/01 09:33:10;;;;;;;17.33;3.72;;;25.10;20.20;;;;;;5089286;28;20139;-65
2021/10/01 09:35:37;;;;;;;15.23;4.00;;;25.10;20.40;;;;;;5090205;28;20131;-63
2021/10/01 09:38:05;;;;;;;17.77;4.47;;;25.10;20.60;;;;;;5090435;28;20471;-63
2021/10/01 09:40:34;;;;;;;16.95;4.18;;;25.00;20.50;;;;;;5089584;28;20133;-63
2021/10/01 09:43:00;;;;;;;11.98;3.50;;;25.00;20.80;;;;;;5073713;28;20095;-65
2021/10/01 09:45:27;;;;;;;13.50;3.78;;;25.00;20.70;;;;;;5087696;28;20186;-63
2021/10/01 09:47:53;;;;;;;19.10;3.55;;;24.90;20.00;;;;;;5090122;28;20171;-64
2021/10/01 09:50:32;;;;;;;17.27;3.67;;;24.90;20.60;;;;;;5088742;28;20123;-63
2021/10/01 09:53:03;;;;;;;14.27;3.63;;;24.80;21.20;;;;;;5088369;28;20069;-63
2021/10/01 09:55:32;;;;;;;8.55;3.13;;;24.80;20.50;;;;;;5089473;28;20096;-63
2021/10/01 09:58:12;;;;;;;14.98;3.28;;;24.70;40.40;;;;;;5088103;28;20162;-61
2021/10/01 10:00:47;;;;;;;5.78;3.05;;;24.70;31.60;;;;;;5089286;28;20020;-63
2021/10/01 10:03:23;;;;;;;21.67;3.83;;;24.10;24.50;;;;;;5089078;28;20151;-63
2021/10/01 10:06:01;;;;;;;;;;;24.40;45.80;;;;;;5089502;28;20050;-63
2021/10/01 10:08:32;;;;;;;17.80;3.50;;;;;;;;;;5087469;28;19965;-63
2021/10/01 10:11:00;;;;;;;12.73;3.47;;;24.50;25.40;;;;;;5088598;28;20032;-63
2021/10/01 10:13:47;;;;;;;10.40;3.17;;;24.50;24.00;;;;;;5087980;28;20024;-63
2021/10/01 10:16:21;;;;;;;12.45;3.30;;;24.50;22.80;;;;;;5089192;28;20032;-63
2021/10/01 10:18:51;;;;;;;5.53;3.00;;;24.60;49.10;;;;;;5088157;28;20432;-63
2021/10/01 10:21:18;;;;;;;10.65;2.85;;;21.30;23.70;;;;;;5089139;28;20056;-65
2021/10/01 10:23:45;;;;;;;16.48;3.40;;;23.80;55.40;;;;;;5088298;28;20154;-63
2021/10/01 10:26:12;;;;;;;7.80;2.92;;;23.50;28.40;;;;;;5086854;28;20611;-62
2021/10/01 10:28:40;;;;;;;12.32;3.20;;;23.30;26.40;;;;;;5087427;28;20023;-64
2021/10/01 10:31:08;;;;;;;12.88;3.30;;;23.30;53.80;;;;;;5086934;28;20123;-63
2021/10/01 10:33:54;;;;;;;7.80;2.90;;;23.40;25.30;;;;;;5089468;28;20024;-63
2021/10/01 10:36:38;;;;;;;9.77;2.80;;;23.40;25.80;;;;;;5090780;28;20917;-63
2021/10/01 10:39:17;;;;;;;6.25;2.80;;;;;;;;;;5087179;28;20032;-64
2021/10/01 10:41:45;;;;;;;13.80;2.90;;;23.40;45.70;;;;;;5086296;28;20024;-65
2021/10/01 10:44:14;;;;;;;13.52;2.80;;;23.50;21.50;;;;;;5088322;28;20077;-63
2021/10/01 10:46:46;;;;;;;12.50;2.97;;;23.70;31.80;;;;;;5087962;28;20092;-64
2021/10/01 10:49:16;;;;;;;13.65;3.03;;;23.50;26.00;;;;;;5087999;28;20438;-64
2021/10/01 10:52:16;;;;;;;16.92;2.83;;;23.50;24.50;;;;;;5087686;28;20072;-62
2021/10/01 10:55:04;;;;;;;22.00;3.25;;;24.30;29.70;;;;;;5088919;28;20392;-64
2021/10/01 10:57:32;;;;;;;14.93;3.10;;;23.60;37.60;;;;;;5092955;28;20073;-63
2021/10/01 11:00:21;;;;;;;22.52;3.67;;;23.10;56.80;;;;;;5089771;28;20079;-63
2021/10/01 11:02:47;;;;;;;10.43;2.75;;;23.50;55.80;;;;;;5087324;28;20027;-62
2021/10/01 11:05:26;;;;;;;15.82;3.35;;;23.50;29.30;;;;;;5086466;28;20115;-63
2021/10/01 11:08:00;;;;;;;18.17;3.58;;;23.50;21.80;;;;;;5087674;28;20094;-63
2021/10/01 11:10:41;;;;;;;12.30;3.22;;;23.30;22.20;;;;;;5086852;28;20034;-62
2021/10/01 11:13:24;;;;;;;12.35;2.70;;;;;;;;;;5089295;28;20050;-62
2021/10/01 11:16:12;;;;;;;17.75;3.08;;;;;;;;;;5087557;28;20035;-63
2021/10/01 11:18:42;;;;;;;14.85;3.13;;;;;;;;;;5086829;28;20051;-62
2021/10/01 11:21:30;;;;;;;12.38;2.72;;;23.80;32.90;;;;;;5090006;28;20020;-61
2021/10/01 11:24:10;;;;;;;9.98;2.90;;;;;;;;;;5085744;28;20087;-61
2021/10/01 11:26:40;;;;;;;7.90;2.95;;;;;;;;;;5090207;28;20036;-62
2021/10/01 11:29:23;;;;;;;13.40;2.80;;;23.50;44.10;;;;;;5085956;28;20489;-62
2021/10/01 11:31:50;;;;;;;4.80;2.38;;;;;;;;;;5086125;28;20155;-62
2021/10/01 11:34:17;;;;;;;10.93;2.60;;;23.10;33.50;;;;;;5086870;28;20067;-61
2021/10/01 11:36:43;;;;;;;10.60;2.40;;;;;;;;;;5088047;28;20091;-63
2021/10/01 11:39:14;;;;;;;13.30;2.78;;;;;;;;;;5087302;28;20029;-62
2021/10/01 11:41:47;;;;;;;13.25;2.80;;;22.90;50.00;;;;;;5091521;28;20028;-63
2021/10/01 11:44:14;;;;;;;7.82;2.65;;;23.00;51.70;;;;;;5090700;28;20080;-62
2021/10/01 11:46:44;;;;;;;13.98;2.75;;;22.90;23.20;;;;;;5085437;28;20055;-63
2021/10/01 11:49:24;;;;;;;12.45;3.30;;;22.90;24.50;;;;;;5085820;28;20069;-63
2021/10/01 11:52:13;;;;;;;15.13;3.35;;;22.80;22.40;;;;;;5085137;28;20196;-62
2021/10/01 11:54:56;;;;;;;8.02;2.60;;;22.90;22.70;;;;;;5089291;28;20625;-63
2021/10/01 11:57:23;;;;;;;10.77;2.63;;;;;;;;;;5091414;28;20088;-60
2021/10/01 11:59:49;;;;;;;21.10;3.10;;;;;;;;;;5090109;28;20032;-62
2021/10/01 12:02:31;;;;;;;13.68;3.40;;;23.40;55.70;;;;;;5090890;28;20028;-61
2021/10/01 12:04:58;;;;;;;10.95;3.40;;;22.60;34.70;;;;;;5091104;28;20039;-62
2021/10/01 12:07:25;;;;;;;11.05;3.13;;;22.80;22.80;;;;;;5091265;28;20682;-62
2021/10/01 12:10:06;;;;;;;14.20;3.78;;;22.60;23.10;;;;;;5095139;28;20115;-63
2021/10/01 12:12:33;;;;;;;15.93;3.92;;;22.40;23.20;;;;;;5090575;28;20072;-63
2021/10/01 12:15:00;;;;;;;15.85;3.38;;;22.50;23.10;;;;;;5073969;28;20085;-63
2021/10/01 12:17:26;;;;;;;12.60;3.33;;;22.50;23.00;;;;;;5091906;28;20155;-65
2021/10/01 12:19:59;;;;;;;8.63;2.97;;;22.40;22.90;;;;;;5092650;28;20187;-64
2021/10/01 12:22:29;;;;;;;13.95;2.83;;;22.50;22.80;;;;;;5090946;28;20426;-64
2021/10/01 12:24:55;;;;;;;14.68;3.17;;;22.40;22.50;;;;;;5092202;28;20073;-63
2021/10/01 12:27:44;;;;;;;16.63;3.20;;;22.30;22.80;;;;;;5091566;28;20076;-63
2021/10/01 12:30:11;;;;;;;11.45;3.22;;;22.00;53.90;;;;;;5103853;28;20196;-63
2021/10/01 12:32:41;;;;;;;15.05;3.30;;;22.70;28.00;;;;;;5089846;28;20035;-63
2021/10/01 12:35:11;;;;;;;19.77;3.78;;;22.50;29.00;;;;;;5089560;28;20032;-63
2021/10/01 12:37:40;;;;;;;15.98;3.67;;;19.60;23.50;;;;;;5091340;28;20038;-63
2021/10/01 12:40:09;;;;;;;9.25;3.35;;;22.10;60.40;;;;;;5089792;28;20025;-63
2021/10/01 12:42:38;;;;;;;9.98;3.08;;;22.50;62.60;;;;;;5098488;28;20020;-63
2021/10/01 12:45:17;;;;;;;17.80;3.53;;;22.20;49.70;;;;;;5089292;28;20027;-63
2021/10/01 12:47:46;;;;;;;24.27;4.00;;;22.20;25.00;;;;;;5092120;28;20076;-63
2021/10/01 12:50:16;;;;;;;21.10;3.72;;;22.10;24.40;;;;;;5090132;28;20088;-63
2021/10/01 12:52:56;;;;;;;16.13;3.72;;;22.10;24.20;;;;;;5092903;28;20419;-63
2021/10/01 12:55:23;;;;;;;20.50;4.63;;;22.10;23.80;;;;;;5075521;28;20224;-63
2021/10/01 12:57:51;;;;;;;15.25;4.80;;;22.10;24.10;;;;;;5090196;28;20114;-63
2021/10/01 13:00:33;;;;;;;24.33;5.00;;;22.00;24.00;;;;;;5091166;28;20149;-63
2021/10/01 13:03:00;;;;;;;23.45;3.97;;;22.00;23.80;;;;;;5088040;28;20544;-64
2021/10/01 13:05:35;;;;;;;20.42;4.18;;;22.00;23.70;;;;;;5092258;28;20076;-63
2021/10/01 13:08:02;;;;;;;20.20;4.30;;;21.90;23.90;;;;;;5088105;28;20573;-62
2021/10/01 13:10:40;;;;;;;19.42;5.20;;;21.90;24.20;;;;;;5087644;28;20080;-62
2021/10/01 13:13:33;;;;;;;25.52;4.63;;;21.80;24.60;;;;;;5087386;28;20099;-62
2021/10/01 13:16:11;;;;;;;26.05;5.10;;;21.80;24.90;;;;;;5087982;28;20095;-64
2021/10/01 13:18:40;;;;;;;18.10;4.93;;;21.90;25.40;;;;;;5088310;28;20224;-61
2021/10/01 13:21:14;;;;;;;11.85;4.55;;;21.80;24.80;;;;;;5089716;28;20092;-62
2021/10/01 13:23:47;;;;;;;19.50;4.97;;;21.70;25.50;;;;;;5089278;28;20084;-63
2021/10/01 13:26:24;;;;;;;32.15;4.90;;;21.70;25.50;;;;;;5088613;28;20116;-62
2021/10/01 13:28:54;;;;;;;17.35;4.90;;;21.60;25.10;;;;;;5089208;28;20068;-62
2021/10/01 13:31:23;;;;;;;26.02;4.82;;;21.50;25.80;;;;;;5090412;28;20140;-63
2021/10/01 13:33:56;;;;;;;22.10;4.72;;;21.40;25.60;;;;;;5091786;28;20065;-63
2021/10/01 13:36:23;;;;;;;22.65;5.07;;;21.20;26.30;;;;;;5088637;28;20171;-61
2021/10/01 13:38:50;;;;;;;27.23;4.50;;;;;;;;;;5073749;28;20083;-62
2021/10/01 13:41:22;;;;;;;27.65;5.68;;;21.30;44.70;;;;;;5090554;28;20020;-63
2021/10/01 13:43:49;;;;;;;21.90;4.88;;;21.10;39.50;;;;;;5088729;28;20079;-63
2021/10/01 13:46:18;;;;;;;21.85;5.35;;;21.60;37.00;;;;;;5090206;28;20020;-61
2021/10/01 13:48:45;;;;;;;57.15;6.25;;;21.20;36.00;;;;;;5086998;28;20035;-61
2021/10/01 13:51:13;;;;;;;30.10;6.78;;;21.10;26.80;;;;;;5089965;28;20397;-63
2021/10/01 13:53:39;;;;;;;40.80;8.45;;;21.10;27.20;;;;;;5088579;28;20065;-62
2021/10/01 13:56:06;;;;;;;36.00;8.98;;;20.90;26.80;;;;;;5087343;28;20445;-63
2021/10/01 13:58:34;;;;;;;46.55;10.80;;;20.80;27.20;;;;;;5090204;28;20426;-63
2021/10/01 14:01:01;;;;;;;44.75;11.07;;;20.80;27.50;;;;;;5090489;28;20069;-62
2021/10/01 14:03:27;;;;;;;51.00;10.00;;;20.80;28.10;;;;;;5088030;28;20103;-64
2021/10/01 14:05:55;;;;;;;44.65;9.65;;;;;;;;;;5090155;28;20081;-62
2021/10/01 14:08:22;;;;;;;49.00;10.10;;;;;;;;;;5090254;28;20505;-62
2021/10/01 14:10:49;;;;;;;55.50;11.57;;;21.00;66.90;;;;;;5089248;28;20032;-63
2021/10/01 14:13:17;;;;;;;57.10;10.40;;;21.00;31.70;;;;;;5087769;28;20535;-63
2021/10/01 14:15:46;;;;;;;49.53;9.98;;;21.10;30.60;;;;;;5088590;28;20147;-63
2021/10/01 14:18:13;;;;;;;47.92;11.40;;;21.20;31.90;;;;;;5089223;28;20515;-64
2021/10/01 14:20:40;;;;;;;44.00;10.35;;;21.10;31.50;;;;;;5088675;28;20106;-63
2021/10/01 14:23:08;;;;;;;44.13;11.30;;;;;;;;;;5087555;28;20076;-62
2021/10/01 14:25:35;;;;;;;43.25;10.00;;;21.10;66.70;;;;;;5087144;28;20024;-61
2021/10/01 14:28:03;;;;;;;35.92;10.25;;;21.10;34.60;;;;;;5086871;28;20158;-63
2021/10/01 14:30:30;;;;;;;38.75;10.13;;;;;;;;;;5085570;28;20116;-63
2021/10/01 14:32:58;;;;;;;51.00;10.45;;;21.40;32.80;;;;;;5086441;28;20039;-61
2021/10/01 14:35:26;;;;;;;43.38;9.52;;;21.10;43.10;;;;;;5087808;28;20108;-62
2021/10/01 14:37:53;;;;;;;45.55;9.85;;;21.50;35.20;;;;;;5088265;28;20548;-61